createdAt,value
2023-01-22T00:00:02.218Z,9.00
2023-01-22T00:02:30.130Z,9.00
2023-01-22T00:04:57.998Z,10.50
2023-01-22T00:07:25.914Z,8.00
2023-01-22T00:09:53.828Z,8.50
2023-01-22T00:12:21.703Z,9.00
2023-01-22T00:14:51.006Z,8.00
2023-01-22T00:17:18.869Z,8.00
2023-01-22T00:19:46.752Z,8.25
2023-01-22T00:22:14.699Z,8.25
2023-01-22T00:24:44.919Z,10.00
2023-01-22T00:27:12.801Z,9.00
2023-01-22T00:29:41.029Z,8.00
2023-01-22T00:32:10.689Z,8.00
2023-01-22T00:34:38.601Z,7.25
2023-01-22T00:37:06.502Z,8.25
2023-01-22T00:39:34.408Z,7.50
2023-01-22T00:42:02.609Z,8.75
2023-01-22T00:44:30.536Z,8.25
2023-01-22T00:46:58.449Z,8.00
2023-01-22T00:49:27.687Z,8.25
2023-01-22T00:51:55.886Z,8.00
2023-01-22T00:54:23.812Z,7.50
2023-01-22T00:56:51.719Z,7.25
2023-01-22T00:59:19.765Z,7.50
2023-01-22T01:01:47.608Z,9.25
2023-01-22T01:04:15.527Z,8.00
2023-01-22T01:06:44.869Z,8.00
2023-01-22T01:09:12.773Z,7.00
2023-01-22T01:11:41.017Z,6.00
2023-01-22T01:14:08.898Z,8.00
2023-01-22T01:16:36.759Z,7.50
2023-01-22T01:19:05.528Z,7.00
2023-01-22T01:21:33.832Z,9.25
2023-01-22T01:24:03.217Z,7.00
2023-01-22T01:26:31.158Z,7.75
2023-01-22T01:28:59.175Z,7.00
2023-01-22T01:31:27.411Z,9.00
2023-01-22T01:33:55.382Z,7.50
2023-01-22T01:36:46.783Z,6.75
2023-01-22T01:39:13.628Z,8.50
2023-01-22T01:41:41.571Z,8.50
2023-01-22T01:44:11.001Z,7.75
2023-01-22T01:46:41.548Z,7.75
2023-01-22T01:49:13.502Z,8.50
2023-01-22T01:51:41.698Z,8.00
2023-01-22T01:54:11.458Z,9.25
2023-01-22T01:56:42.231Z,9.00
2023-01-22T01:59:12.053Z,7.50
2023-01-22T02:01:40.254Z,8.00
2023-01-22T02:04:08.210Z,9.75
2023-01-22T02:06:36.072Z,11.00
2023-01-22T02:09:03.976Z,8.25
2023-01-22T02:11:31.894Z,9.00
2023-01-22T02:14:02.568Z,9.00
2023-01-22T02:16:30.598Z,8.50
2023-01-22T02:18:58.519Z,8.00
2023-01-22T02:21:33.856Z,8.25
2023-01-22T02:24:01.826Z,9.25
2023-01-22T02:26:29.772Z,9.50
2023-01-22T02:28:57.643Z,10.00
2023-01-22T02:31:25.868Z,8.50
2023-01-22T02:33:53.990Z,8.75
2023-01-22T02:36:22.408Z,8.25
2023-01-22T02:38:51.703Z,8.50
2023-01-22T02:41:19.860Z,9.00
2023-01-22T02:43:47.718Z,9.25
2023-01-22T02:46:15.629Z,8.00
2023-01-22T02:48:43.512Z,8.00
2023-01-22T02:51:11.390Z,8.75
2023-01-22T02:53:39.278Z,9.00
2023-01-22T02:56:09.058Z,9.00
2023-01-22T02:58:37.050Z,8.25
2023-01-22T03:01:18.971Z,8.00
2023-01-22T03:03:47.314Z,8.50
2023-01-22T03:06:16.166Z,9.75
2023-01-22T03:08:44.481Z,7.75
2023-01-22T03:11:13.718Z,10.25
2023-01-22T03:13:58.848Z,8.25
2023-01-22T03:16:44.145Z,8.50
2023-01-22T03:19:29.789Z,7.75
2023-01-22T03:21:57.730Z,8.00
2023-01-22T03:24:25.620Z,9.25
2023-01-22T03:26:54.939Z,10.00
2023-01-22T03:29:22.846Z,8.25
2023-01-22T03:31:51.014Z,9.00
2023-01-22T03:34:19.821Z,9.00
2023-01-22T03:36:47.821Z,9.00
2023-01-22T03:39:15.845Z,9.50
2023-01-22T03:41:44.000Z,8.00
2023-01-22T03:44:14.280Z,7.50
2023-01-22T03:46:42.169Z,8.75
2023-01-22T03:49:10.199Z,8.25
2023-01-22T03:51:38.426Z,7.50
2023-01-22T03:54:06.434Z,8.00
2023-01-22T03:56:34.477Z,8.25
2023-01-22T03:59:02.336Z,8.00
2023-01-22T04:01:31.692Z,9.25
2023-01-22T04:03:59.927Z,7.50
2023-01-22T04:06:27.941Z,8.75
2023-01-22T04:08:55.866Z,9.00
2023-01-22T04:11:24.432Z,8.50
2023-01-22T04:13:52.326Z,8.50
2023-01-22T04:16:20.306Z,9.00
2023-01-22T04:18:49.738Z,7.00
2023-01-22T04:21:17.932Z,8.00
2023-01-22T04:23:45.779Z,7.75
2023-01-22T04:26:13.679Z,7.50
2023-01-22T04:28:41.518Z,8.00
2023-01-22T04:31:10.179Z,8.00
2023-01-22T04:33:38.112Z,9.00
2023-01-22T04:36:07.569Z,8.00
2023-01-22T04:38:35.444Z,7.00
2023-01-22T04:41:03.605Z,8.25
2023-01-22T04:43:31.512Z,8.25
2023-01-22T04:45:59.466Z,7.25
2023-01-22T04:48:27.425Z,8.00
2023-01-22T04:50:55.655Z,6.00
2023-01-22T04:53:25.101Z,7.00
2023-01-22T04:55:53.024Z,7.00
2023-01-22T04:58:20.945Z,7.00
2023-01-22T05:00:48.800Z,7.00
2023-01-22T05:03:16.735Z,7.75
2023-01-22T05:05:44.623Z,8.00
2023-01-22T05:08:12.579Z,7.00
2023-01-22T05:10:41.887Z,8.25
2023-01-22T05:13:10.053Z,7.50
2023-01-22T05:15:37.942Z,6.25
2023-01-22T05:18:06.014Z,6.25
2023-01-22T05:20:33.925Z,8.50
2023-01-22T05:23:02.082Z,6.75
2023-01-22T05:25:30.052Z,6.00
2023-01-22T05:27:59.315Z,6.00
2023-01-22T05:30:27.267Z,7.00
2023-01-22T05:32:57.258Z,6.25
2023-01-22T05:35:25.165Z,7.75
2023-01-22T05:37:53.026Z,6.00
2023-01-22T05:40:21.233Z,6.50
2023-01-22T05:42:49.446Z,7.75
2023-01-22T05:45:18.751Z,7.00
2023-01-22T05:47:46.738Z,8.50
2023-01-22T05:50:14.612Z,7.00
2023-01-22T05:52:42.793Z,7.00
2023-01-22T05:55:10.998Z,6.75
2023-01-22T05:57:38.894Z,6.75
2023-01-22T06:00:10.311Z,7.00
2023-01-22T06:02:39.913Z,7.00
2023-01-22T06:05:09.140Z,6.50
2023-01-22T06:07:37.080Z,6.75
2023-01-22T06:10:05.441Z,7.00
2023-01-22T06:12:33.603Z,6.00
2023-01-22T06:15:01.480Z,6.00
2023-01-22T06:17:29.424Z,7.00
2023-01-22T06:19:58.722Z,7.00
2023-01-22T06:22:26.856Z,7.00
2023-01-22T06:24:54.785Z,5.75
2023-01-22T06:27:22.719Z,6.00
2023-01-22T06:29:50.610Z,6.00
2023-01-22T06:32:18.520Z,7.00
2023-01-22T06:34:46.514Z,6.50
2023-01-22T06:37:15.799Z,6.00
2023-01-22T06:39:43.717Z,5.75
2023-01-22T06:42:11.883Z,6.75
2023-01-22T06:44:39.708Z,7.00
2023-01-22T06:47:07.578Z,6.00
2023-01-22T06:49:35.481Z,6.00
2023-01-22T06:52:03.604Z,7.00
2023-01-22T06:54:32.904Z,6.00
2023-01-22T06:57:00.823Z,6.75
2023-01-22T06:59:28.717Z,5.25
2023-01-22T07:01:56.775Z,6.25
2023-01-22T07:04:24.689Z,6.00
2023-01-22T07:06:52.575Z,6.00
2023-01-22T07:09:20.492Z,6.00
2023-01-22T07:11:50.455Z,6.00
2023-01-22T07:14:28.838Z,6.00
2023-01-22T07:17:03.780Z,6.00
2023-01-22T07:19:31.681Z,6.00
2023-01-22T07:21:59.960Z,5.00
2023-01-22T07:24:27.904Z,5.25
2023-01-22T07:26:57.182Z,5.00
2023-01-22T07:29:25.096Z,6.00
2023-01-22T07:31:53.412Z,6.50
2023-01-22T07:34:21.577Z,6.50
2023-01-22T07:36:49.463Z,6.00
2023-01-22T07:39:17.734Z,6.75
2023-01-22T07:41:46.973Z,6.25
2023-01-22T07:44:16.388Z,7.25
2023-01-22T07:46:44.384Z,5.00
2023-01-22T07:49:12.404Z,6.00
2023-01-22T07:51:40.567Z,7.00
2023-01-22T07:54:09.765Z,6.00
2023-01-22T07:56:37.688Z,6.25
2023-01-22T07:59:05.994Z,6.00
2023-01-22T08:01:35.807Z,5.50
2023-01-22T08:04:03.801Z,6.00
2023-01-22T08:06:31.700Z,6.00
2023-01-22T08:09:00.113Z,6.00
2023-01-22T08:11:28.398Z,6.00
2023-01-22T08:13:56.305Z,5.00
2023-01-22T08:16:24.350Z,5.50
2023-01-22T08:18:53.860Z,6.00
2023-01-22T08:21:22.085Z,5.25
2023-01-22T08:23:49.983Z,6.00
2023-01-22T08:26:17.884Z,5.00
2023-01-22T08:28:45.802Z,5.50
2023-01-22T08:31:26.968Z,5.50
2023-01-22T08:33:58.890Z,5.75
2023-01-22T08:36:26.956Z,6.00
2023-01-22T08:38:54.874Z,6.00
2023-01-22T08:41:23.119Z,6.00
2023-01-22T08:43:52.060Z,6.00
2023-01-22T08:46:19.968Z,6.50
2023-01-22T08:48:48.879Z,7.50
2023-01-22T08:51:18.536Z,6.00
2023-01-22T08:53:46.545Z,6.00
2023-01-22T08:56:14.423Z,6.25
2023-01-22T08:58:42.489Z,6.00
2023-01-22T09:01:15.824Z,7.00
2023-01-22T09:03:43.915Z,6.00
2023-01-22T09:06:11.870Z,5.75
2023-01-22T09:08:41.107Z,6.50
2023-01-22T09:11:09.306Z,7.50
2023-01-22T09:13:37.179Z,7.00
2023-01-22T09:16:06.014Z,6.75
2023-01-22T09:18:33.988Z,7.25
2023-01-22T09:21:02.211Z,6.00
2023-01-22T09:23:30.096Z,6.25
2023-01-22T09:25:59.413Z,6.00
2023-01-22T09:28:27.252Z,7.00
2023-01-22T09:30:55.484Z,6.50
2023-01-22T09:33:23.470Z,6.25
2023-01-22T09:35:51.361Z,6.50
2023-01-22T09:38:19.818Z,6.00
2023-01-22T09:40:49.748Z,6.75
2023-01-22T09:43:26.080Z,6.00
2023-01-22T09:45:55.380Z,6.00
2023-01-22T09:48:23.258Z,7.25
2023-01-22T09:50:51.473Z,6.00
2023-01-22T09:53:20.053Z,7.50
2023-01-22T09:55:48.828Z,5.75
2023-01-22T09:58:17.645Z,7.00
2023-01-22T10:00:49.218Z,6.00
2023-01-22T10:03:22.520Z,6.00
2023-01-22T10:05:52.731Z,7.00
2023-01-22T10:08:22.481Z,6.50
2023-01-22T10:10:52.072Z,7.00
2023-01-22T10:13:21.312Z,7.00
2023-01-22T10:15:51.134Z,7.50
2023-01-22T10:18:29.219Z,7.00
2023-01-22T10:20:57.125Z,6.50
2023-01-22T10:23:26.583Z,6.00
2023-01-22T10:25:56.906Z,7.00
2023-01-22T10:28:25.754Z,6.75
2023-01-22T10:30:58.855Z,7.00
2023-01-22T10:33:28.149Z,6.25
2023-01-22T10:35:57.842Z,5.00
2023-01-22T10:38:27.967Z,8.00
2023-01-22T10:40:59.867Z,6.25
2023-01-22T10:43:34.717Z,6.00
2023-01-22T10:46:06.819Z,7.50
2023-01-22T10:48:34.981Z,7.25
2023-01-22T10:51:14.333Z,6.00
2023-01-22T10:53:46.927Z,7.50
2023-01-22T10:56:14.886Z,6.75
2023-01-22T10:58:48.280Z,7.50
2023-01-22T11:01:29.683Z,6.75
2023-01-22T11:03:57.595Z,6.25
2023-01-22T11:06:27.435Z,6.00
2023-01-22T11:08:59.355Z,7.50
2023-01-22T11:11:30.314Z,6.75
2023-01-22T11:14:03.883Z,7.00
2023-01-22T11:16:36.071Z,7.75
2023-01-22T11:19:07.233Z,7.00
2023-01-22T11:21:38.098Z,7.50
2023-01-22T11:24:09.968Z,8.00
2023-01-22T11:26:44.621Z,7.00
2023-01-22T11:29:18.868Z,7.75
2023-01-22T11:32:05.929Z,7.00
2023-01-22T11:34:43.464Z,8.00
2023-01-22T11:37:13.611Z,9.00
2023-01-22T11:39:49.227Z,7.00
2023-01-22T11:42:23.710Z,7.50
2023-01-22T11:45:01.282Z,6.50
2023-01-22T11:47:40.923Z,7.00
2023-01-22T11:50:17.446Z,7.00
2023-01-22T11:52:49.127Z,8.00
2023-01-22T11:55:26.740Z,7.00
2023-01-22T11:57:58.366Z,8.25
2023-01-22T12:00:31.904Z,7.50
2023-01-22T12:03:18.265Z,8.00
2023-01-22T12:05:47.421Z,7.00
2023-01-22T12:08:21.709Z,7.00
2023-01-22T12:11:31.207Z,7.00
2023-01-22T12:14:13.109Z,7.75
2023-01-22T12:16:45.855Z,8.00
2023-01-22T12:19:34.870Z,7.00
2023-01-22T12:22:05.390Z,8.25
2023-01-22T12:24:35.556Z,7.50
2023-01-22T12:27:04.906Z,9.00
2023-01-22T12:29:34.670Z,9.00
2023-01-22T12:32:08.938Z,7.00
2023-01-22T12:34:41.048Z,7.50
2023-01-22T12:37:09.157Z,8.00
2023-01-22T12:39:39.424Z,8.00
2023-01-22T12:42:14.721Z,7.50
2023-01-22T12:44:49.977Z,8.75
2023-01-22T12:47:21.263Z,8.00
2023-01-22T12:49:54.579Z,8.00
2023-01-22T12:52:35.627Z,9.00
2023-01-22T12:55:04.590Z,8.00
2023-01-22T12:57:39.788Z,8.00
2023-01-22T13:00:24.773Z,8.00
2023-01-22T13:02:52.719Z,8.00
2023-01-22T13:05:35.740Z,9.00
2023-01-22T13:08:04.661Z,9.25
2023-01-22T13:10:33.710Z,7.50
2023-01-22T13:13:04.541Z,8.00
2023-01-22T13:15:33.261Z,8.00
2023-01-22T13:18:07.947Z,8.00
2023-01-22T13:20:38.588Z,9.00
2023-01-22T13:23:07.146Z,8.00
2023-01-22T13:25:35.370Z,9.25
2023-01-22T13:28:03.873Z,9.00
2023-01-22T13:30:32.028Z,8.00
2023-01-22T13:33:07.762Z,8.25
2023-01-22T13:35:42.271Z,9.00
2023-01-22T13:38:20.195Z,8.00
2023-01-22T13:40:51.583Z,9.50
2023-01-22T13:43:19.859Z,8.50
2023-01-22T13:45:47.727Z,7.50
2023-01-22T13:48:17.061Z,8.75
2023-01-22T13:50:48.884Z,8.75
2023-01-22T13:53:26.037Z,9.50
2023-01-22T13:55:53.960Z,7.50
2023-01-22T13:58:46.729Z,9.00
2023-01-22T14:01:27.218Z,9.75
2023-01-22T14:03:59.563Z,9.00
2023-01-22T14:06:28.913Z,9.00
2023-01-22T14:08:57.726Z,9.50
2023-01-22T14:11:26.002Z,9.25
2023-01-22T14:13:54.296Z,9.00
2023-01-22T14:16:22.189Z,9.00
2023-01-22T14:18:50.165Z,9.00
2023-01-22T14:21:18.317Z,10.50
2023-01-22T14:23:47.608Z,9.00
2023-01-22T14:26:15.517Z,10.00
2023-01-22T14:28:43.660Z,10.75
2023-01-22T14:31:11.619Z,9.25
2023-01-22T14:33:39.633Z,10.00
2023-01-22T14:36:08.422Z,9.00
2023-01-22T14:38:36.332Z,9.75
2023-01-22T14:41:06.584Z,9.50
2023-01-22T14:43:35.580Z,10.25
2023-01-22T14:46:03.522Z,9.25
2023-01-22T14:48:31.484Z,9.00
2023-01-22T14:50:59.783Z,9.50
2023-01-22T14:53:30.155Z,9.00
2023-01-22T14:55:58.121Z,11.00
2023-01-22T14:58:27.425Z,9.50
2023-01-22T15:00:55.605Z,11.00
2023-01-22T15:03:23.512Z,11.00
2023-01-22T15:05:52.260Z,10.00
2023-01-22T15:08:20.125Z,10.00
2023-01-22T15:10:48.322Z,10.00
2023-01-22T15:13:16.255Z,10.50
2023-01-22T15:15:45.585Z,11.00
2023-01-22T15:18:14.772Z,11.00
2023-01-22T15:20:42.700Z,11.00
2023-01-22T15:23:10.554Z,10.00
2023-01-22T15:25:38.463Z,10.50
2023-01-22T15:28:06.666Z,12.25
2023-01-22T15:30:34.732Z,11.25
2023-01-22T15:33:04.393Z,11.00
2023-01-22T15:35:32.280Z,10.25
2023-01-22T15:38:00.208Z,10.00
2023-01-22T15:40:28.206Z,10.50
2023-01-22T15:42:56.485Z,10.75
2023-01-22T15:45:24.379Z,12.25
2023-01-22T15:47:53.541Z,10.75
2023-01-22T15:50:22.817Z,10.25
2023-01-22T15:52:54.075Z,11.00
2023-01-22T15:55:22.036Z,12.00
2023-01-22T15:57:49.910Z,11.25
2023-01-22T16:00:18.665Z,11.00
2023-01-22T16:02:47.074Z,13.25
2023-01-22T16:05:15.131Z,12.50
2023-01-22T16:07:44.438Z,12.00
2023-01-22T16:10:12.636Z,13.00
2023-01-22T16:12:40.794Z,11.00
2023-01-22T16:15:12.161Z,10.00
2023-01-22T16:17:40.013Z,11.50
2023-01-22T16:20:09.922Z,12.00
2023-01-22T16:22:38.155Z,12.75
2023-01-22T16:25:08.066Z,11.75
2023-01-22T16:27:35.975Z,13.00
2023-01-22T16:30:03.972Z,11.50
2023-01-22T16:32:32.136Z,10.25
2023-01-22T16:35:00.031Z,11.50
2023-01-22T16:37:27.936Z,12.75
2023-01-22T16:39:55.809Z,12.00
2023-01-22T16:42:25.363Z,13.50
2023-01-22T16:44:53.254Z,11.00
2023-01-22T16:47:21.472Z,11.25
2023-01-22T16:49:49.764Z,12.50
2023-01-22T16:52:22.784Z,12.75
2023-01-22T16:54:51.113Z,13.00
2023-01-22T16:57:19.548Z,10.75
2023-01-22T16:59:48.859Z,11.50
2023-01-22T17:02:18.998Z,12.00
2023-01-22T17:04:47.031Z,13.00
2023-01-22T17:07:31.570Z,11.00
2023-01-22T17:10:01.198Z,13.00
2023-01-22T17:12:29.742Z,13.25
2023-01-22T17:14:59.097Z,13.50
2023-01-22T17:17:27.003Z,11.75
2023-01-22T17:19:54.949Z,13.25
2023-01-22T17:22:24.284Z,12.25
2023-01-22T17:24:52.670Z,12.25
2023-01-22T17:27:21.536Z,12.00
2023-01-22T17:29:49.396Z,12.50
2023-01-22T17:32:19.001Z,12.25
2023-01-22T17:34:46.886Z,12.50
2023-01-22T17:37:14.784Z,12.00
2023-01-22T17:39:43.471Z,12.00
2023-01-22T17:42:11.705Z,13.25
2023-01-22T17:44:40.418Z,12.50
2023-01-22T17:47:08.936Z,12.25
2023-01-22T17:49:38.557Z,11.50
2023-01-22T17:52:09.064Z,13.00
2023-01-22T17:54:37.084Z,12.50
2023-01-22T17:57:05.594Z,12.25
2023-01-22T17:59:33.508Z,13.00
2023-01-22T18:02:01.699Z,13.00
2023-01-22T18:04:31.476Z,12.75
2023-01-22T18:07:00.850Z,14.00
2023-01-22T18:09:28.748Z,13.25
2023-01-22T18:11:58.472Z,15.75
2023-01-22T18:14:30.258Z,13.50
2023-01-22T18:16:58.129Z,13.00
2023-01-22T18:19:26.073Z,12.50
2023-01-22T18:21:54.434Z,13.00
2023-01-22T18:24:24.190Z,13.25
2023-01-22T18:26:54.301Z,13.00
2023-01-22T18:29:22.216Z,13.00
2023-01-22T18:31:50.161Z,12.25
2023-01-22T18:34:18.149Z,14.00
2023-01-22T18:36:46.036Z,14.00
2023-01-22T18:39:15.635Z,13.00
2023-01-22T18:41:47.007Z,15.00
2023-01-22T18:44:16.204Z,13.75
2023-01-22T18:46:47.436Z,13.75
2023-01-22T18:49:18.557Z,12.75
2023-01-22T18:51:46.588Z,13.50
2023-01-22T18:54:14.546Z,15.25
2023-01-22T18:56:42.454Z,13.00
2023-01-22T18:59:12.986Z,12.25
2023-01-22T19:01:42.796Z,14.50
2023-01-22T19:04:17.813Z,12.75
2023-01-22T19:06:48.251Z,14.00
2023-01-22T19:09:16.439Z,14.75
2023-01-22T19:11:47.005Z,12.25
2023-01-22T19:14:17.204Z,15.00
2023-01-22T19:16:48.215Z,13.00
2023-01-22T19:19:16.324Z,12.75
2023-01-22T19:21:47.693Z,14.00
2023-01-22T19:24:16.321Z,15.00
2023-01-22T19:26:46.469Z,13.00
2023-01-22T19:29:17.463Z,14.50
2023-01-22T19:31:47.175Z,13.75
2023-01-22T19:34:16.561Z,15.00
2023-01-22T19:36:44.474Z,15.50
2023-01-22T19:39:13.304Z,14.75
2023-01-22T19:41:41.524Z,15.00
2023-01-22T19:44:09.907Z,13.00
2023-01-22T19:46:39.247Z,14.00
2023-01-22T19:49:07.430Z,15.00
2023-01-22T19:51:35.417Z,15.25
2023-01-22T19:54:04.606Z,14.25
2023-01-22T19:56:33.569Z,14.00
2023-01-22T19:59:02.697Z,13.50
2023-01-22T20:01:30.942Z,13.50
2023-01-22T20:04:00.613Z,15.25
2023-01-22T20:06:29.253Z,15.00
2023-01-22T20:08:57.465Z,15.25
2023-01-22T20:11:25.690Z,15.75
2023-01-22T20:13:53.601Z,15.25
2023-01-22T20:16:22.422Z,14.50
2023-01-22T20:18:50.558Z,15.00
2023-01-22T20:21:20.269Z,14.50
2023-01-22T20:23:48.628Z,17.00
2023-01-22T20:26:17.158Z,19.00
2023-01-22T20:28:45.468Z,18.50
2023-01-22T20:31:15.000Z,20.00
2023-01-22T20:33:42.958Z,19.50
2023-01-22T20:36:11.684Z,21.75
2023-01-22T20:38:40.971Z,24.75
2023-01-22T20:41:10.339Z,24.00
2023-01-22T20:43:39.187Z,24.25
2023-01-22T20:46:08.152Z,26.50
2023-01-22T20:48:36.141Z,26.50
2023-01-22T20:51:04.592Z,25.75
2023-01-22T20:53:32.501Z,27.25
2023-01-22T20:56:03.104Z,29.00
2023-01-22T20:58:31.435Z,27.25
2023-01-22T21:01:03.961Z,25.75
2023-01-22T21:03:32.166Z,26.00
2023-01-22T21:06:02.890Z,26.25
2023-01-22T21:08:30.779Z,29.00
2023-01-22T21:10:59.457Z,28.00
2023-01-22T21:13:28.894Z,29.00
2023-01-22T21:15:56.801Z,27.00
2023-01-22T21:18:24.906Z,30.00
2023-01-22T21:20:53.083Z,27.50
2023-01-22T21:23:20.988Z,26.75
2023-01-22T21:25:48.931Z,27.75
2023-01-22T21:28:16.835Z,28.50
2023-01-22T21:30:46.431Z,29.00
2023-01-22T21:33:14.397Z,28.50
2023-01-22T21:35:42.248Z,30.00
2023-01-22T21:38:10.265Z,30.50
2023-01-22T21:40:38.584Z,30.00
2023-01-22T21:43:20.739Z,28.00
2023-01-22T21:46:07.738Z,31.00
2023-01-22T21:48:36.969Z,29.25
2023-01-22T21:51:05.175Z,29.50
2023-01-22T21:53:33.119Z,29.50
2023-01-22T21:56:01.206Z,30.00
2023-01-22T21:58:29.304Z,30.00
2023-01-22T22:01:04.251Z,30.00
2023-01-22T22:03:34.397Z,30.00
2023-01-22T22:06:02.582Z,27.00
2023-01-22T22:08:30.502Z,29.25
2023-01-22T22:10:58.658Z,28.75
2023-01-22T22:13:26.541Z,30.25
2023-01-22T22:16:09.443Z,30.25
2023-01-22T22:18:37.536Z,29.00
2023-01-22T22:21:06.909Z,26.75
2023-01-22T22:23:35.240Z,26.00
2023-01-22T22:26:03.175Z,28.00
2023-01-22T22:28:31.092Z,26.50
2023-01-22T22:31:05.202Z,26.25
2023-01-22T22:33:33.165Z,26.50
2023-01-22T22:36:01.720Z,25.50
2023-01-22T22:38:29.739Z,24.50
2023-01-22T22:41:02.272Z,27.00
2023-01-22T22:43:33.220Z,26.25
2023-01-22T22:46:06.554Z,22.25
2023-01-22T22:48:34.601Z,23.50
2023-01-22T22:51:02.797Z,22.25
2023-01-22T22:53:30.704Z,22.75
2023-01-22T22:55:58.595Z,20.75
2023-01-22T22:58:26.501Z,20.00
2023-01-22T23:00:54.673Z,21.50
2023-01-22T23:03:24.074Z,22.00
2023-01-22T23:05:51.944Z,21.25
2023-01-22T23:08:19.803Z,22.00
2023-01-22T23:10:47.971Z,24.00
2023-01-22T23:13:15.860Z,22.25
2023-01-22T23:15:43.706Z,21.25
2023-01-22T23:18:11.609Z,19.75
2023-01-22T23:20:40.860Z,20.75
2023-01-22T23:23:09.039Z,20.25
2023-01-22T23:25:36.995Z,20.00
2023-01-22T23:28:05.236Z,20.50
2023-01-22T23:30:33.206Z,20.00
2023-01-22T23:33:01.479Z,19.00
2023-01-22T23:35:29.373Z,19.00
2023-01-22T23:37:58.659Z,17.00
2023-01-22T23:40:26.596Z,19.50
2023-01-22T23:42:54.742Z,18.00
2023-01-22T23:45:22.606Z,16.50
2023-01-22T23:47:52.231Z,18.00
2023-01-22T23:50:20.561Z,16.00
2023-01-22T23:52:48.873Z,18.00
2023-01-22T23:55:18.183Z,18.00
2023-01-22T23:57:46.119Z,17.25
